North Potomac, Maryland
Current Conditions -  °F | °C
As of 9:35 AM on Thursday 18 Dec 2014 (Local Time) from KGAI Reporting Station
Overcast Overcast  
Wind Chill: 24°   Ceiling: 3500
Heat Index: 34°   Visibility: 10mi
Dew Point: 18°   Wind: 14mph
Humidity: 52%   Direction: 290°WNW
Pressure: 30.19"   Gusts: 23mph
Location:  39.08°N, 77.26°W
Report Text: KGAI 181435Z 29012G20KT 10SM OVC035 01/M08 A3019 RMK AO1
Loading
Personal Weather Stations






























Interactive Weather Map New forecast layout! Learn more

10-Day Weather Forecast

Advertisements
Track Severe Weather on mobile